createdAt,value
2019-06-20T03:25:56.869Z,0.29
2019-06-20T04:11:54.450Z,0.41
2019-06-20T04:22:35.915Z,1.07
2019-06-20T04:34:26.457Z,2
2019-06-20T04:43:09.446Z,2.94
2019-06-20T04:55:00.302Z,3.38
2019-06-20T05:07:44.488Z,3.89
2019-06-20T05:14:58.122Z,5
2019-06-20T05:21:22.355Z,5.96
2019-06-20T05:28:18.498Z,7.03
2019-06-20T05:36:07.049Z,8.54
2019-06-20T05:45:21.520Z,8.63
2019-06-20T05:54:01.866Z,8.22
2019-06-20T06:04:43.949Z,7.54
2019-06-20T06:12:34.037Z,7.35
2019-06-20T06:22:23.148Z,7.74
2019-06-20T06:29:53.795Z,7.46
2019-06-20T06:36:07.884Z,10.17
2019-06-20T06:43:21.541Z,11.94
2019-06-20T06:50:18.625Z,11.76
2019-06-20T06:56:22.838Z,11.77
2019-06-20T07:04:28.204Z,11.13
2019-06-20T07:10:49.824Z,9.72
2019-06-20T07:17:00.038Z,10.72
2019-06-20T07:23:39.257Z,11.48
2019-06-20T07:30:17.894Z,11.83
2019-06-20T07:36:56.506Z,12.44
2019-06-20T07:43:18.107Z,13.18
2019-06-20T07:49:48.659Z,14.83
2019-06-20T07:56:27.391Z,13.58
2019-06-20T08:02:31.492Z,13.14
2019-06-20T08:08:35.784Z,14.2
2019-06-20T08:14:40.013Z,17.97
2019-06-20T08:20:51.407Z,16.25
2019-06-20T15:18:31.565Z,15.99
2019-06-20T15:24:35.557Z,24.65
2019-06-20T15:30:43.418Z,16.25
2019-06-20T15:37:26.351Z,13.54
2019-06-20T15:43:33.789Z,13.65
2019-06-20T15:50:43.628Z,10.24
2019-06-20T15:58:31.457Z,8.77
2019-06-20T16:04:35.443Z,10.32
2019-06-20T16:11:14.030Z,15.33
2019-06-20T16:17:18.020Z,39.15
2019-06-20T16:23:22.038Z,32.78
2019-06-20T16:29:26.177Z,27.04
2019-06-20T16:35:43.644Z,20.76
2019-06-20T16:41:47.973Z,23
2019-06-20T16:47:51.926Z,22.51
2019-06-20T16:53:56.081Z,16.5
2019-06-20T17:00:00.311Z,17.71
2019-06-20T17:06:04.383Z,13.43
2019-06-20T17:12:45.989Z,7.34
2019-06-20T17:20:51.386Z,6.13
2019-06-20T17:30:23.182Z,5.39
2019-06-20T17:38:28.182Z,5.53
2019-06-20T17:47:25.363Z,4.42
2019-06-20T18:00:42.639Z,3.67
2019-06-20T18:09:08.500Z,3.29
2019-06-20T18:26:32.154Z,3.94
2019-06-20T18:36:21.529Z,3.5
2019-06-20T18:44:27.168Z,2.73
2019-06-20T18:50:31.432Z,2.87
2019-06-20T19:04:06.223Z,1.77
2019-06-20T19:20:51.535Z,1.12
2019-06-20T19:50:02.961Z,0.47
